createdAt,value
2022-09-04T00:00:28.495Z,8.80
2022-09-04T00:03:23.236Z,8.80
2022-09-04T00:06:00.918Z,8.15
2022-09-04T00:08:33.685Z,8.45
2022-09-04T00:11:08.747Z,7.90
2022-09-04T00:13:43.826Z,11.10
2022-09-04T00:16:22.614Z,9.57
2022-09-04T00:19:08.846Z,11.38
2022-09-04T00:21:59.332Z,10.25
2022-09-04T00:24:42.102Z,9.65
2022-09-04T00:27:21.449Z,10.20
2022-09-04T00:30:06.535Z,10.52
2022-09-04T00:32:51.850Z,9.73
2022-09-04T00:35:44.692Z,10.60
2022-09-04T00:38:53.996Z,10.80
2022-09-04T00:41:34.955Z,9.88
2022-09-04T00:44:33.330Z,8.93
2022-09-04T00:47:13.665Z,10.30
2022-09-04T00:50:02.532Z,11.00
2022-09-04T00:53:06.999Z,11.85
2022-09-04T00:56:01.010Z,11.57
2022-09-04T00:58:48.260Z,11.60
2022-09-04T01:01:22.428Z,10.50
2022-09-04T01:04:02.747Z,9.95
2022-09-04T01:07:05.976Z,9.07
2022-09-04T01:09:54.367Z,9.40
2022-09-04T01:12:36.670Z,10.18
2022-09-04T01:15:28.796Z,13.15
2022-09-04T01:18:13.973Z,12.18
2022-09-04T01:20:52.551Z,13.43
2022-09-04T01:23:41.180Z,13.25
2022-09-04T01:26:28.178Z,14.18
2022-09-04T01:29:14.445Z,12.57
2022-09-04T01:31:57.521Z,12.05
2022-09-04T01:35:02.418Z,10.63
2022-09-04T01:38:04.245Z,11.82
2022-09-04T01:40:48.494Z,12.27
2022-09-04T01:43:21.140Z,12.93
2022-09-04T01:46:33.567Z,13.60
2022-09-04T01:49:05.183Z,11.10
2022-09-04T01:51:50.728Z,10.23
2022-09-04T01:54:36.262Z,10.57
2022-09-04T01:57:24.127Z,9.57
2022-09-04T02:00:09.638Z,9.52
2022-09-04T02:02:44.255Z,9.15
2022-09-04T02:06:01.730Z,8.75
2022-09-04T02:08:49.981Z,7.57
2022-09-04T02:11:27.978Z,6.75
2022-09-04T02:14:23.903Z,7.45
2022-09-04T02:17:12.569Z,7.82
2022-09-04T02:20:29.700Z,6.78
2022-09-04T02:23:05.524Z,6.25
2022-09-04T02:25:45.004Z,6.70
2022-09-04T02:28:43.029Z,6.82
2022-09-04T02:31:29.738Z,6.35
2022-09-04T02:33:56.529Z,7.15
2022-09-04T02:36:33.953Z,6.40
2022-09-04T02:39:39.872Z,6.45
2022-09-04T02:42:32.417Z,5.88
2022-09-04T02:45:08.126Z,5.35
2022-09-04T02:47:35.101Z,6.50
2022-09-04T02:50:23.110Z,6.57
2022-09-04T02:53:03.215Z,6.40
2022-09-04T02:56:09.601Z,5.70
2022-09-04T02:59:13.422Z,5.82
2022-09-04T03:01:49.998Z,5.40
2022-09-04T03:04:42.787Z,5.57
2022-09-04T03:07:18.159Z,5.03
2022-09-04T03:09:56.266Z,5.20
2022-09-04T03:12:41.481Z,5.38
2022-09-04T03:15:23.399Z,5.18
2022-09-04T03:18:19.876Z,4.85
2022-09-04T03:20:56.623Z,4.32
2022-09-04T03:23:42.249Z,4.95
2022-09-04T03:26:31.609Z,4.18
2022-09-04T03:29:05.131Z,4.97
2022-09-04T03:31:40.276Z,4.57
2022-09-04T03:34:16.336Z,5.53
2022-09-04T03:36:49.717Z,5.22
2022-09-04T03:39:29.376Z,4.97
2022-09-04T03:42:34.656Z,4.40
2022-09-04T03:45:20.016Z,5.45
2022-09-04T03:48:12.367Z,4.43
2022-09-04T03:51:28.365Z,4.90
2022-09-04T03:54:09.932Z,5.22
2022-09-04T03:56:45.836Z,4.90
2022-09-04T03:59:26.590Z,5.07
2022-09-04T04:02:15.242Z,5.10
2022-09-04T04:05:03.241Z,5.22
2022-09-04T04:07:58.803Z,5.20
2022-09-04T04:10:31.180Z,5.32
2022-09-04T04:13:10.409Z,5.07
2022-09-04T04:16:02.065Z,5.55
2022-09-04T04:18:37.989Z,5.68
2022-09-04T04:21:33.781Z,5.47
2022-09-04T04:24:39.037Z,6.68
2022-09-04T04:27:21.003Z,5.80
2022-09-04T04:30:00.998Z,4.95
2022-09-04T04:32:27.962Z,5.05
2022-09-04T04:35:12.718Z,4.85
2022-09-04T04:38:01.562Z,4.47
2022-09-04T04:40:28.317Z,3.85
2022-09-04T04:43:03.439Z,3.70
2022-09-04T04:45:51.347Z,3.22
2022-09-04T04:51:40.746Z,3.08
2022-09-04T04:54:38.397Z,3.38
2022-09-04T04:57:20.348Z,3.03
2022-09-04T05:00:07.035Z,3.17
2022-09-04T05:02:55.674Z,2.60
2022-09-04T05:05:41.809Z,3.90
2022-09-04T05:08:54.276Z,3.33
2022-09-04T05:11:35.841Z,2.97
2022-09-04T05:14:27.687Z,2.83
2022-09-04T05:17:03.890Z,2.83
2022-09-04T05:20:08.292Z,2.50
2022-09-04T05:22:45.566Z,2.40
2022-09-04T05:25:43.366Z,3.00
2022-09-04T05:28:23.933Z,2.42
2022-09-04T05:31:42.110Z,2.60
2022-09-04T05:34:21.323Z,2.83
2022-09-04T05:37:00.385Z,3.30
2022-09-04T05:39:30.696Z,3.55
2022-09-04T05:42:06.941Z,2.72
2022-09-04T05:44:52.762Z,3.40
2022-09-04T05:47:30.645Z,2.58
2022-09-04T05:50:21.941Z,2.70
2022-09-04T05:53:19.611Z,2.58
2022-09-04T05:56:14.548Z,2.47
2022-09-04T05:58:50.614Z,3.08
2022-09-04T06:01:54.514Z,2.75
2022-09-04T06:04:45.875Z,3.53
2022-09-04T06:07:16.467Z,3.30
2022-09-04T06:10:07.374Z,3.53
2022-09-04T06:12:49.618Z,3.20
2022-09-04T06:15:35.326Z,3.30
2022-09-04T06:18:32.914Z,3.22
2022-09-04T06:21:12.011Z,3.30
2022-09-04T06:26:45.898Z,3.13
2022-09-04T06:29:32.367Z,4.18
2022-09-04T06:32:23.186Z,3.20
2022-09-04T06:35:11.532Z,3.45
2022-09-04T06:38:07.172Z,2.97
2022-09-04T06:40:59.704Z,3.47
2022-09-04T06:43:48.865Z,3.05
2022-09-04T06:46:24.238Z,3.72
2022-09-04T06:49:14.024Z,3.40
2022-09-04T06:52:03.322Z,3.15
2022-09-04T06:54:40.646Z,4.35
2022-09-04T06:57:07.622Z,3.60
2022-09-04T06:59:54.627Z,3.38
2022-09-04T07:02:40.269Z,3.28
2022-09-04T07:05:25.175Z,3.67
2022-09-04T07:08:09.394Z,3.10
2022-09-04T07:10:59.708Z,2.67
2022-09-04T07:13:51.067Z,3.97
2022-09-04T07:16:39.939Z,2.53
2022-09-04T07:19:09.895Z,2.47
2022-09-04T07:22:07.549Z,3.03
2022-09-04T07:25:01.915Z,2.53
2022-09-04T07:27:55.904Z,2.58
2022-09-04T07:30:26.147Z,2.50
2022-09-04T07:33:35.359Z,2.95
2022-09-04T07:36:21.004Z,2.60
2022-09-04T07:39:09.539Z,2.40
2022-09-04T07:41:51.610Z,2.50
2022-09-04T07:44:24.372Z,2.55
2022-09-04T07:47:16.328Z,2.45
2022-09-04T07:50:09.433Z,2.55
2022-09-04T07:52:54.746Z,2.63
2022-09-04T07:55:43.600Z,2.63
2022-09-04T07:58:25.880Z,3.08
2022-09-04T08:01:09.247Z,2.60
2022-09-04T08:04:04.877Z,3.97
2022-09-04T08:06:37.748Z,2.40
2022-09-04T08:09:13.838Z,3.22
2022-09-04T08:11:58.277Z,13.20
2022-09-04T08:14:32.561Z,2.90
2022-09-04T08:17:20.963Z,4.18
2022-09-04T08:19:59.059Z,2.42
2022-09-04T08:22:39.102Z,3.17
2022-09-04T08:25:24.111Z,4.68
2022-09-04T08:28:09.311Z,2.72
2022-09-04T08:30:47.267Z,3.10
2022-09-04T08:33:28.341Z,2.67
2022-09-04T08:36:25.447Z,2.78
2022-09-04T08:39:14.940Z,3.28
2022-09-04T08:42:13.286Z,2.90
2022-09-04T08:44:51.887Z,2.30
2022-09-04T08:47:21.599Z,2.38
2022-09-04T08:50:23.937Z,2.65
2022-09-04T08:53:26.175Z,2.53
2022-09-04T08:56:37.795Z,2.80
2022-09-04T08:59:23.195Z,3.17
2022-09-04T09:02:03.384Z,2.58
2022-09-04T09:05:00.100Z,2.80
2022-09-04T09:07:54.686Z,2.45
2022-09-04T09:10:27.737Z,2.25
2022-09-04T09:13:15.729Z,2.20
2022-09-04T09:15:51.777Z,2.67
2022-09-04T09:18:40.411Z,2.42
2022-09-04T09:21:36.120Z,2.13
2022-09-04T09:24:35.909Z,2.20
2022-09-04T09:27:38.359Z,2.20
2022-09-04T09:30:14.762Z,2.00
2022-09-04T09:33:12.492Z,2.10
2022-09-04T09:36:12.222Z,2.63
2022-09-04T09:39:07.288Z,2.28
2022-09-04T09:41:34.020Z,1.67
2022-09-04T09:44:09.783Z,1.70
2022-09-04T09:47:05.811Z,2.03
2022-09-04T09:49:51.376Z,1.35
2022-09-04T09:52:53.051Z,1.40
2022-09-04T09:55:22.693Z,1.75
2022-09-04T09:58:26.454Z,1.40
2022-09-04T10:00:59.950Z,1.77
2022-09-04T10:03:39.125Z,1.75
2022-09-04T10:06:45.866Z,1.40
2022-09-04T10:09:37.398Z,1.50
2022-09-04T10:12:30.960Z,1.63
2022-09-04T10:15:06.624Z,1.67
2022-09-04T10:18:10.868Z,1.50
2022-09-04T10:21:10.505Z,1.60
2022-09-04T10:24:07.163Z,1.30
2022-09-04T10:26:48.997Z,1.45
2022-09-04T10:29:36.535Z,2.65
2022-09-04T10:32:03.274Z,1.75
2022-09-04T10:34:50.478Z,1.33
2022-09-04T10:37:17.236Z,2.60
2022-09-04T10:40:21.647Z,2.10
2022-09-04T10:43:19.289Z,1.60
2022-09-04T10:45:54.899Z,1.35
2022-09-04T10:48:46.724Z,1.38
2022-09-04T10:51:33.474Z,1.80
2022-09-04T10:54:21.566Z,1.30
2022-09-04T10:56:54.599Z,2.58
2022-09-04T11:00:08.043Z,1.63
2022-09-04T11:02:53.409Z,1.40
2022-09-04T11:05:44.499Z,1.75
2022-09-04T11:08:19.902Z,1.67
2022-09-04T11:11:19.324Z,1.52
2022-09-04T11:14:14.880Z,1.17
2022-09-04T11:17:19.750Z,1.42
2022-09-04T11:19:56.164Z,1.27
2022-09-04T11:22:44.302Z,1.70
2022-09-04T11:25:39.191Z,1.17
2022-09-04T11:28:19.666Z,1.13
2022-09-04T11:31:21.085Z,1.30
2022-09-04T11:34:15.821Z,1.42
2022-09-04T11:36:49.437Z,1.40
2022-09-04T11:39:47.459Z,1.10
2022-09-04T11:42:29.771Z,1.02
2022-09-04T11:45:27.024Z,1.40
2022-09-04T11:48:12.155Z,1.45
2022-09-04T11:51:02.786Z,1.40
2022-09-04T11:53:40.963Z,1.40
2022-09-04T11:56:32.211Z,1.25
2022-09-04T11:59:18.020Z,1.10
2022-09-04T12:02:18.586Z,1.38
2022-09-04T12:05:17.235Z,1.10
2022-09-04T12:08:07.197Z,1.00
2022-09-04T12:10:55.981Z,1.02
2022-09-04T12:13:47.480Z,0.82
2022-09-04T12:16:14.588Z,1.00
2022-09-04T12:18:58.498Z,1.20
2022-09-04T12:21:41.122Z,1.23
2022-09-04T12:24:39.238Z,1.15
2022-09-04T12:27:24.963Z,1.20
2022-09-04T12:30:14.984Z,1.20
2022-09-04T12:33:00.087Z,0.95
2022-09-04T12:35:56.103Z,1.25
2022-09-04T12:38:38.559Z,1.50
2022-09-04T12:41:20.125Z,1.98
2022-09-04T12:43:52.861Z,1.55
2022-09-04T12:46:56.010Z,1.50
2022-09-04T12:49:58.293Z,1.70
2022-09-04T12:52:43.603Z,1.45
2022-09-04T12:55:25.642Z,1.52
2022-09-04T12:58:21.513Z,1.73
2022-09-04T13:01:10.642Z,2.08
2022-09-04T13:03:46.794Z,1.45
2022-09-04T13:06:53.267Z,1.50
2022-09-04T13:09:39.044Z,1.90
2022-09-04T13:12:19.706Z,3.38
2022-09-04T13:15:04.964Z,1.80
2022-09-04T13:17:58.501Z,1.90
2022-09-04T13:20:43.571Z,2.40
2022-09-04T13:23:46.590Z,1.50
2022-09-04T13:26:42.876Z,1.60
2022-09-04T13:29:23.379Z,1.60
2022-09-04T13:31:56.679Z,1.90
2022-09-04T13:34:24.419Z,2.20
2022-09-04T13:37:11.901Z,2.00
2022-09-04T13:39:45.037Z,1.90
2022-09-04T13:42:42.509Z,2.00
2022-09-04T13:45:28.559Z,2.17
2022-09-04T13:48:11.683Z,2.10
2022-09-04T13:50:58.219Z,2.85
2022-09-04T13:53:40.003Z,2.35
2022-09-04T13:56:16.822Z,2.38
2022-09-04T13:58:49.660Z,2.20
2022-09-04T14:01:23.954Z,2.28
2022-09-04T14:03:59.463Z,2.00
2022-09-04T14:06:29.926Z,2.05
2022-09-04T14:09:05.123Z,1.83
2022-09-04T14:11:41.793Z,2.10
2022-09-04T14:14:15.031Z,2.30
2022-09-04T14:16:44.037Z,2.30
2022-09-04T14:19:32.443Z,1.95
2022-09-04T14:22:15.960Z,2.20
2022-09-04T14:24:45.989Z,1.98
2022-09-04T14:27:21.919Z,2.45
2022-09-04T14:30:08.576Z,2.15
2022-09-04T14:32:55.684Z,2.00
2022-09-04T14:35:46.928Z,2.78
2022-09-04T14:38:41.269Z,2.47
2022-09-04T14:41:36.079Z,1.95
2022-09-04T14:44:20.916Z,1.92
2022-09-04T14:47:25.516Z,1.90
2022-09-04T14:50:01.319Z,1.90
2022-09-04T14:52:37.785Z,1.80
2022-09-04T14:55:07.128Z,2.00
2022-09-04T14:57:47.635Z,1.65
2022-09-04T15:00:20.726Z,1.90
2022-09-04T15:03:02.506Z,1.98
2022-09-04T15:05:35.637Z,1.23
2022-09-04T15:08:10.937Z,1.70
2022-09-04T15:10:50.642Z,2.25
2022-09-04T15:13:31.403Z,1.92
2022-09-04T15:16:09.983Z,1.73
2022-09-04T15:18:53.632Z,1.65
2022-09-04T15:21:43.590Z,1.60
2022-09-04T15:24:16.341Z,1.60
2022-09-04T15:26:46.371Z,1.67
2022-09-04T15:29:19.392Z,1.70
2022-09-04T15:31:46.547Z,1.55
2022-09-04T15:34:24.596Z,1.60
2022-09-04T15:36:52.092Z,1.70
2022-09-04T15:39:32.938Z,1.50
2022-09-04T15:44:41.150Z,1.80
2022-09-04T15:47:34.154Z,1.60
2022-09-04T15:50:17.294Z,1.80
2022-09-04T15:52:59.848Z,1.95
2022-09-04T15:55:31.495Z,2.15
2022-09-04T15:58:13.519Z,1.83
2022-09-04T16:01:06.670Z,1.60
2022-09-04T16:04:18.407Z,2.17
2022-09-04T16:06:54.222Z,1.85
2022-09-04T16:09:50.189Z,1.63
2022-09-04T16:12:35.198Z,1.85
2022-09-04T16:15:04.759Z,1.63
2022-09-04T16:20:18.455Z,1.58
2022-09-04T16:22:51.658Z,1.73
2022-09-04T16:25:19.210Z,1.92
2022-09-04T16:27:50.587Z,2.22
2022-09-04T16:30:34.443Z,1.90
2022-09-04T16:33:03.911Z,2.03
2022-09-04T16:35:41.603Z,1.88
2022-09-04T16:38:23.901Z,1.90
2022-09-04T16:41:15.680Z,1.92
2022-09-04T16:44:14.693Z,1.85
2022-09-04T16:47:02.869Z,2.00
2022-09-04T16:49:57.546Z,1.85
2022-09-04T16:52:44.648Z,1.83
2022-09-04T16:55:32.230Z,2.00
2022-09-04T16:58:13.352Z,29.27
2022-09-04T17:01:13.968Z,29.83
2022-09-04T17:03:46.608Z,7.40
2022-09-04T17:06:32.196Z,3.10
2022-09-04T17:09:40.570Z,2.90
2022-09-04T17:12:38.277Z,3.20
2022-09-04T17:15:23.639Z,2.40
2022-09-04T17:17:53.864Z,2.95
2022-09-04T17:22:07.162Z,6.15
2022-09-04T17:28:57.772Z,4.63
2022-09-04T17:29:09.937Z,8.32
2022-09-04T17:29:38.253Z,20.45
2022-09-04T17:35:35.410Z,7.13
2022-09-04T17:40:35.106Z,5.63
2022-09-04T17:40:48.577Z,6.30
2022-09-04T17:42:13.974Z,13.32
2022-09-04T17:44:50.545Z,12.02
2022-09-04T17:47:34.677Z,12.45
2022-09-04T17:50:02.311Z,13.57
2022-09-04T17:52:53.336Z,12.25
2022-09-04T17:55:21.234Z,11.45
2022-09-04T17:57:56.575Z,10.70
2022-09-04T18:00:29.292Z,9.35
2022-09-04T18:03:04.288Z,10.02
2022-09-04T18:05:56.811Z,15.20
2022-09-04T18:08:32.778Z,12.77
2022-09-04T18:11:20.984Z,8.93
2022-09-04T18:14:11.363Z,9.10
2022-09-04T18:16:42.414Z,8.60
2022-09-04T18:19:29.493Z,8.70
2022-09-04T18:22:26.342Z,9.35
2022-09-04T18:25:16.871Z,17.75
2022-09-04T18:28:12.314Z,16.40
2022-09-04T18:37:10.293Z,17.00
2022-09-04T18:37:22.284Z,13.35
2022-09-04T18:37:22.453Z,14.13
2022-09-04T18:39:50.275Z,12.43
2022-09-04T18:48:54.926Z,12.52
2022-09-04T18:50:42.919Z,12.02
2022-09-04T18:50:48.965Z,12.25
2022-09-04T18:51:25.111Z,10.40
2022-09-04T18:54:01.606Z,9.93
2022-09-04T18:56:41.504Z,10.30
2022-09-04T18:59:30.896Z,9.93
2022-09-04T19:02:19.794Z,10.25
2022-09-04T19:07:35.629Z,9.23
2022-09-04T19:10:20.042Z,10.00
2022-09-04T19:12:49.702Z,9.90
2022-09-04T19:15:36.862Z,10.38
2022-09-04T19:18:30.314Z,8.55
2022-09-04T19:21:12.538Z,8.95
2022-09-04T19:23:50.893Z,8.82
2022-09-04T19:26:52.647Z,9.50
2022-09-04T19:29:46.224Z,9.63
2022-09-04T19:32:32.263Z,9.25
2022-09-04T19:35:12.073Z,10.32
2022-09-04T19:44:36.651Z,8.43
2022-09-04T19:45:58.957Z,9.25
2022-09-04T19:46:11.434Z,8.88
2022-09-04T19:47:28.780Z,8.55
2022-09-04T19:53:18.472Z,7.97
2022-09-04T19:53:39.087Z,8.80
2022-09-04T19:56:29.984Z,7.30
2022-09-04T19:59:00.899Z,8.07
2022-09-04T20:01:39.009Z,8.48
2022-09-04T20:04:21.611Z,8.38
2022-09-04T20:06:52.780Z,8.50
2022-09-04T20:09:36.233Z,9.05
2022-09-04T20:12:19.590Z,8.63
2022-09-04T20:14:53.700Z,8.07
2022-09-04T20:17:44.795Z,8.98
2022-09-04T20:20:26.113Z,9.02
2022-09-04T20:23:34.769Z,8.40
2022-09-04T20:26:23.603Z,9.70
2022-09-04T20:29:18.913Z,9.27
2022-09-04T20:32:00.590Z,8.77
2022-09-04T20:34:40.065Z,8.20
2022-09-04T20:40:04.144Z,9.35
2022-09-04T20:42:40.175Z,8.55
2022-09-04T20:48:55.129Z,8.73
2022-09-04T20:52:48.682Z,9.45
2022-09-04T20:52:50.862Z,9.05
2022-09-04T20:55:05.695Z,9.23
2022-09-04T21:03:09.575Z,9.13
2022-09-04T21:03:20.357Z,8.38
2022-09-04T21:04:14.413Z,7.75
2022-09-04T21:06:52.104Z,7.82
2022-09-04T21:09:29.511Z,8.60
2022-09-04T21:12:31.621Z,8.00
2022-09-04T21:15:23.203Z,9.30
2022-09-04T21:18:29.456Z,10.15
2022-09-04T21:21:21.618Z,9.23
2022-09-04T21:24:25.437Z,7.60
2022-09-04T21:27:09.077Z,8.25
2022-09-04T21:30:07.025Z,9.10
2022-09-04T21:33:27.188Z,10.05
2022-09-04T21:36:26.601Z,9.43
2022-09-04T21:38:56.874Z,9.55
2022-09-04T21:42:17.346Z,9.77
2022-09-04T21:45:12.326Z,10.18
2022-09-04T21:47:45.666Z,8.57
2022-09-04T21:50:23.293Z,9.10
2022-09-04T21:53:27.754Z,10.05
2022-09-04T22:00:32.061Z,9.77
2022-09-04T22:02:29.145Z,9.10
2022-09-04T22:02:52.823Z,9.45
2022-09-04T22:05:21.203Z,9.73
2022-09-04T22:12:25.840Z,8.65
2022-09-04T22:13:43.500Z,9.63
2022-09-04T22:13:49.259Z,9.00
2022-09-04T22:16:41.983Z,9.23
2022-09-04T22:19:16.725Z,9.57
2022-09-04T22:22:03.486Z,9.30
2022-09-04T22:24:53.024Z,9.43
2022-09-04T22:27:25.686Z,8.23
2022-09-04T22:30:11.669Z,9.07
2022-09-04T22:33:07.300Z,8.90
2022-09-04T22:35:40.318Z,9.13
2022-09-04T22:38:25.498Z,9.17
2022-09-04T22:41:10.607Z,8.67
2022-09-04T22:43:46.565Z,10.50
2022-09-04T22:46:33.036Z,8.93
2022-09-04T22:49:22.500Z,9.63
2022-09-04T22:52:33.394Z,9.63
2022-09-04T22:55:29.263Z,9.50
2022-09-04T22:58:31.782Z,8.83
2022-09-04T23:01:39.938Z,9.20
2022-09-04T23:04:12.775Z,9.10
2022-09-04T23:08:34.549Z,8.30
2022-09-04T23:13:53.602Z,8.77
2022-09-04T23:14:02.409Z,9.10
2022-09-04T23:16:23.400Z,9.67
2022-09-04T23:26:32.481Z,8.37
2022-09-04T23:26:41.586Z,8.90
2022-09-04T23:26:44.992Z,9.47
2022-09-04T23:28:51.663Z,9.20
2022-09-04T23:32:13.366Z,9.20
2022-09-04T23:35:16.343Z,9.33
2022-09-04T23:38:10.871Z,9.77
2022-09-04T23:41:30.703Z,8.57
2022-09-04T23:44:47.050Z,9.10
2022-09-04T23:47:57.211Z,8.43
2022-09-04T23:50:57.608Z,8.97
2022-09-04T23:54:25.293Z,8.83
2022-09-04T23:57:27.953Z,8.75
